Trezevant, Tennessee
Current Conditions -  °F | °C
As of 5:55 AM on Friday 21 Nov 2014 (Local Time) from KPHT Reporting Station
Broken Clouds Broken Clouds  
Wind Chill: 23°   Ceiling: 4300
Heat Index: 30°   Visibility: 10mi
Dew Point: 21°   Wind: 8mph
Humidity: 69%   Direction: 70°ENE
Pressure: 30.37"   Gusts: NA
Location:  36.01°N, 88.62°W
Report Text: KPHT 211155Z AUTO 07007KT 10SM BKN043 M01/M06 A3037 RMK
Loading
Personal Weather Stations






























Interactive Weather Map New forecast layout! Learn more

10-Day Weather Forecast

Advertisements
Track Severe Weather on mobile